createdAt,value
2023-06-23T00:01:23.781Z,17.80
2023-06-23T00:03:55.447Z,17.80
2023-06-23T00:06:22.653Z,17.80
2023-06-23T00:08:49.345Z,17.70
2023-06-23T00:11:16.053Z,17.70
2023-06-23T00:13:42.832Z,17.80
2023-06-23T00:16:09.827Z,17.80
2023-06-23T00:18:38.326Z,17.80
2023-06-23T00:21:06.523Z,17.70
2023-06-23T00:23:34.140Z,17.70
2023-06-23T00:26:04.793Z,17.80
2023-06-23T00:28:32.071Z,17.80
2023-06-23T00:30:58.842Z,17.80
2023-06-23T00:33:25.600Z,17.90
2023-06-23T00:35:52.281Z,17.90
2023-06-23T00:38:18.980Z,17.90
2023-06-23T00:40:45.688Z,17.90
2023-06-23T00:43:12.638Z,17.90
2023-06-23T00:45:40.071Z,17.90
2023-06-23T00:48:06.975Z,17.80
2023-06-23T00:50:33.905Z,17.80
2023-06-23T00:53:00.856Z,17.80
2023-06-23T00:55:31.472Z,17.80
2023-06-23T00:57:59.564Z,17.80
2023-06-23T01:00:28.619Z,17.80
2023-06-23T01:03:00.524Z,17.70
2023-06-23T01:05:33.172Z,17.80
2023-06-23T01:08:11.630Z,17.80
2023-06-23T01:10:53.020Z,17.80
2023-06-23T01:13:38.738Z,17.70
2023-06-23T01:16:29.593Z,17.70
2023-06-23T01:18:59.841Z,17.70
2023-06-23T01:21:39.843Z,17.70
2023-06-23T01:24:24.155Z,17.70
2023-06-23T01:27:21.549Z,17.80
2023-06-23T01:29:52.298Z,17.70
2023-06-23T01:32:29.153Z,17.70
2023-06-23T01:35:08.407Z,17.70
2023-06-23T01:37:38.304Z,17.70
2023-06-23T01:40:15.745Z,17.70
2023-06-23T01:42:55.382Z,17.60
2023-06-23T01:45:25.988Z,17.50
2023-06-23T01:47:54.655Z,17.50
2023-06-23T01:50:23.137Z,17.50
2023-06-23T01:52:52.606Z,17.40
2023-06-23T01:55:20.295Z,17.40
2023-06-23T01:57:49.398Z,17.50
2023-06-23T02:00:19.687Z,17.60
2023-06-23T02:02:48.650Z,17.70
2023-06-23T02:05:18.704Z,17.70
2023-06-23T02:07:48.630Z,17.60
2023-06-23T02:10:17.820Z,17.70
2023-06-23T02:12:46.588Z,17.60
2023-06-23T02:15:15.665Z,17.50
2023-06-23T02:17:44.066Z,17.50
2023-06-23T02:20:17.970Z,17.50
2023-06-23T02:22:51.240Z,17.50
2023-06-23T02:25:19.049Z,17.40
2023-06-23T02:27:47.085Z,17.30
2023-06-23T02:30:14.729Z,17.30
2023-06-23T02:32:41.714Z,17.40
2023-06-23T02:35:09.523Z,17.40
2023-06-23T02:37:40.038Z,17.40
2023-06-23T02:40:12.107Z,17.40
2023-06-23T02:42:50.798Z,17.40
2023-06-23T02:45:23.283Z,17.50
2023-06-23T02:47:53.850Z,17.50
2023-06-23T02:50:26.203Z,17.50
2023-06-23T02:52:59.626Z,17.40
2023-06-23T02:55:28.111Z,17.40
2023-06-23T02:57:57.958Z,17.40
2023-06-23T03:00:28.309Z,17.50
2023-06-23T03:03:00.344Z,17.40
2023-06-23T03:05:28.131Z,17.40
2023-06-23T03:07:55.273Z,17.40
2023-06-23T03:10:22.239Z,17.40
2023-06-23T03:12:49.494Z,17.60
2023-06-23T03:15:16.912Z,17.50
2023-06-23T03:17:45.448Z,17.60
2023-06-23T03:20:26.672Z,17.60
2023-06-23T03:22:58.769Z,17.60
2023-06-23T03:25:30.212Z,17.70
2023-06-23T03:27:59.969Z,17.70
2023-06-23T03:30:51.774Z,17.60
2023-06-23T03:33:51.248Z,17.60
2023-06-23T03:36:22.209Z,17.70
2023-06-23T03:38:58.914Z,17.70
2023-06-23T03:41:28.964Z,17.80
2023-06-23T03:44:00.206Z,17.70
2023-06-23T03:46:43.479Z,17.70
2023-06-23T03:49:12.418Z,17.70
2023-06-23T03:51:42.149Z,17.70
2023-06-23T03:54:10.661Z,17.70
2023-06-23T03:56:38.334Z,17.70
2023-06-23T03:59:06.880Z,17.70
2023-06-23T04:01:36.259Z,17.70
2023-06-23T04:04:04.552Z,17.80
2023-06-23T04:06:32.281Z,17.70
2023-06-23T04:08:59.792Z,17.80
2023-06-23T04:11:28.406Z,17.80
2023-06-23T04:13:57.552Z,17.80
2023-06-23T04:16:26.066Z,17.80
2023-06-23T04:18:55.069Z,17.80
2023-06-23T04:21:23.459Z,17.80
2023-06-23T04:23:51.612Z,17.80
2023-06-23T04:26:18.562Z,17.70
2023-06-23T04:28:47.894Z,17.80
2023-06-23T04:31:18.140Z,17.80
2023-06-23T04:33:44.945Z,17.80
2023-06-23T04:36:21.529Z,17.80
2023-06-23T04:39:02.977Z,17.80
2023-06-23T04:41:32.632Z,17.70
2023-06-23T04:44:02.237Z,17.70
2023-06-23T04:46:37.745Z,17.70
2023-06-23T04:49:09.779Z,17.70
2023-06-23T04:51:42.116Z,17.70
2023-06-23T04:54:15.325Z,17.60
2023-06-23T04:56:46.370Z,17.60
2023-06-23T04:59:15.445Z,17.70
2023-06-23T05:01:43.485Z,17.70
2023-06-23T05:04:12.493Z,17.70
2023-06-23T05:06:40.510Z,17.70
2023-06-23T05:09:08.524Z,17.60
2023-06-23T05:11:35.832Z,17.60
2023-06-23T05:14:04.677Z,17.60
2023-06-23T05:16:32.331Z,17.60
2023-06-23T05:19:00.445Z,17.60
2023-06-23T05:21:30.384Z,17.60
2023-06-23T05:23:59.063Z,17.60
2023-06-23T05:26:26.529Z,17.70
2023-06-23T05:28:55.452Z,17.70
2023-06-23T05:31:24.628Z,17.80
2023-06-23T05:33:52.790Z,17.80
2023-06-23T05:36:22.213Z,17.90
2023-06-23T05:38:50.127Z,17.80
2023-06-23T05:41:16.896Z,17.90
2023-06-23T05:43:43.645Z,17.90
2023-06-23T05:46:16.056Z,17.90
2023-06-23T05:48:52.874Z,17.90
2023-06-23T05:51:26.827Z,18.00
2023-06-23T05:53:58.258Z,18.00
2023-06-23T05:56:40.156Z,18.00
2023-06-23T05:59:11.705Z,18.10
2023-06-23T06:01:44.279Z,18.20
2023-06-23T06:04:14.706Z,18.30
2023-06-23T06:06:43.637Z,18.30
2023-06-23T06:09:12.777Z,18.30
2023-06-23T06:11:42.091Z,18.40
2023-06-23T06:14:10.841Z,18.50
2023-06-23T06:16:39.166Z,18.50
2023-06-23T06:19:08.321Z,18.60
2023-06-23T06:21:38.689Z,18.60
2023-06-23T06:24:07.723Z,18.50
2023-06-23T06:26:34.487Z,18.50
2023-06-23T06:29:02.240Z,18.50
2023-06-23T06:31:32.160Z,18.60
2023-06-23T06:34:01.335Z,18.60
2023-06-23T06:36:32.570Z,18.60
2023-06-23T06:39:00.781Z,18.70
2023-06-23T06:41:28.335Z,18.70
2023-06-23T06:43:57.162Z,18.80
2023-06-23T06:46:26.099Z,18.90
2023-06-23T06:48:54.294Z,19.00
2023-06-23T06:51:21.573Z,18.90
2023-06-23T06:53:48.388Z,19.00
2023-06-23T06:56:16.040Z,19.10
2023-06-23T06:58:43.146Z,19.10
2023-06-23T07:01:10.999Z,19.40
2023-06-23T07:03:40.994Z,19.40
2023-06-23T07:06:07.787Z,19.50
2023-06-23T07:08:34.472Z,19.50
2023-06-23T07:11:01.233Z,19.60
2023-06-23T07:13:27.939Z,19.80
2023-06-23T07:15:54.711Z,19.90
2023-06-23T07:18:21.528Z,19.90
2023-06-23T07:20:48.228Z,19.80
2023-06-23T07:23:14.909Z,19.80
2023-06-23T07:25:41.674Z,19.80
2023-06-23T07:28:08.376Z,19.80
2023-06-23T07:30:35.432Z,19.80
2023-06-23T07:33:02.461Z,20.00
2023-06-23T07:35:29.222Z,20.10
2023-06-23T07:37:55.970Z,20.10
2023-06-23T07:40:22.678Z,20.20
2023-06-23T07:42:49.452Z,20.40
2023-06-23T07:45:16.181Z,20.50
2023-06-23T07:47:42.910Z,20.70
2023-06-23T07:50:09.975Z,20.60
2023-06-23T07:52:36.784Z,20.60
2023-06-23T07:55:04.082Z,20.90
2023-06-23T07:57:30.792Z,21.00
2023-06-23T07:59:57.522Z,21.10
2023-06-23T08:02:24.340Z,21.10
2023-06-23T08:04:51.521Z,21.10
2023-06-23T08:07:18.255Z,21.00
2023-06-23T08:09:45.381Z,21.00
2023-06-23T08:12:12.059Z,20.90
2023-06-23T08:14:38.779Z,21.00
2023-06-23T08:17:05.878Z,21.10
2023-06-23T08:19:32.618Z,21.10
2023-06-23T08:21:59.496Z,21.30
2023-06-23T08:24:26.272Z,21.40
2023-06-23T08:26:52.984Z,21.40
2023-06-23T08:29:19.701Z,21.40
2023-06-23T08:31:46.550Z,21.50
2023-06-23T08:34:13.373Z,21.70
2023-06-23T08:36:40.054Z,21.60
2023-06-23T08:39:06.826Z,21.80
2023-06-23T08:41:35.371Z,21.90
2023-06-23T08:44:02.849Z,22.10
2023-06-23T08:46:44.363Z,22.40
2023-06-23T08:49:23.222Z,22.60
2023-06-23T08:51:51.396Z,22.80
2023-06-23T08:54:18.720Z,23.00
2023-06-23T08:56:45.960Z,23.20
2023-06-23T08:59:13.396Z,23.20
2023-06-23T09:01:40.282Z,23.40
2023-06-23T09:04:09.448Z,23.40
2023-06-23T09:06:37.172Z,23.20
2023-06-23T09:09:04.013Z,23.30
2023-06-23T09:11:31.373Z,23.30
2023-06-23T09:13:59.667Z,23.10
2023-06-23T09:16:28.005Z,23.00
2023-06-23T09:18:55.140Z,22.90
2023-06-23T09:21:23.104Z,23.20
2023-06-23T09:24:05.159Z,23.60
2023-06-23T09:26:51.101Z,23.70
2023-06-23T09:29:23.082Z,23.70
2023-06-23T09:31:51.973Z,23.20
2023-06-23T09:34:23.649Z,23.10
2023-06-23T09:36:51.074Z,23.30
2023-06-23T09:39:17.876Z,23.70
2023-06-23T09:41:55.713Z,23.80
2023-06-23T09:44:22.652Z,23.80
2023-06-23T09:47:00.627Z,23.90
2023-06-23T09:49:27.364Z,23.70
2023-06-23T09:51:54.065Z,23.70
2023-06-23T09:54:43.310Z,24.00
2023-06-23T09:57:13.894Z,24.20
2023-06-23T09:59:41.803Z,24.10
2023-06-23T10:02:10.316Z,24.10
2023-06-23T10:04:37.827Z,24.10
2023-06-23T10:07:20.330Z,24.20
2023-06-23T10:09:51.857Z,24.30
2023-06-23T10:12:23.275Z,24.20
2023-06-23T10:14:52.716Z,24.20
2023-06-23T10:17:19.455Z,24.10
2023-06-23T10:19:48.745Z,24.20
2023-06-23T10:22:17.357Z,24.20
2023-06-23T10:24:48.262Z,24.40
2023-06-23T10:27:24.031Z,24.40
2023-06-23T10:29:55.873Z,24.20
2023-06-23T10:32:24.731Z,24.10
2023-06-23T10:34:52.731Z,24.00
2023-06-23T10:37:31.866Z,24.20
2023-06-23T10:40:07.270Z,24.40
2023-06-23T10:42:35.878Z,24.60
2023-06-23T10:45:03.964Z,24.50
2023-06-23T10:47:30.870Z,24.50
2023-06-23T10:49:58.654Z,24.50
2023-06-23T10:52:25.632Z,24.50
2023-06-23T10:54:52.663Z,24.80
2023-06-23T10:57:19.331Z,25.10
2023-06-23T11:00:06.369Z,24.90
2023-06-23T11:02:53.202Z,24.90
2023-06-23T11:05:22.335Z,24.90
2023-06-23T11:08:06.005Z,25.20
2023-06-23T11:10:54.305Z,25.40
2023-06-23T11:13:36.574Z,25.50
2023-06-23T11:16:04.755Z,25.40
2023-06-23T11:18:31.833Z,25.50
2023-06-23T11:21:14.340Z,25.60
2023-06-23T11:24:14.321Z,25.60
2023-06-23T11:26:49.924Z,25.60
2023-06-23T11:29:22.870Z,25.70
2023-06-23T11:32:09.642Z,25.40
2023-06-23T11:35:10.294Z,25.50
2023-06-23T11:37:39.608Z,25.70
2023-06-23T11:40:09.961Z,25.80
2023-06-23T11:42:44.568Z,25.90
2023-06-23T11:45:11.654Z,25.90
2023-06-23T11:47:39.461Z,25.90
2023-06-23T11:50:08.177Z,25.80
2023-06-23T11:52:35.533Z,25.90
2023-06-23T11:55:03.032Z,26.10
2023-06-23T11:57:32.366Z,26.10
2023-06-23T11:59:59.911Z,26.00
2023-06-23T12:02:27.711Z,26.00
2023-06-23T12:04:58.434Z,26.00
2023-06-23T12:07:29.765Z,25.90
2023-06-23T12:09:57.010Z,26.10
2023-06-23T12:12:23.752Z,26.50
2023-06-23T12:14:58.158Z,26.20
2023-06-23T12:17:24.879Z,26.10
2023-06-23T12:19:54.279Z,26.60
2023-06-23T12:22:21.616Z,26.70
2023-06-23T12:24:48.464Z,27.00
2023-06-23T12:27:15.219Z,27.00
2023-06-23T12:29:42.150Z,27.00
2023-06-23T12:32:09.933Z,27.30
2023-06-23T12:34:42.794Z,27.80
2023-06-23T12:37:17.825Z,27.70
2023-06-23T12:39:55.697Z,27.60
2023-06-23T12:42:23.436Z,27.70
2023-06-23T12:44:51.063Z,27.80
2023-06-23T12:47:19.536Z,27.90
2023-06-23T12:49:46.507Z,27.70
2023-06-23T12:52:13.313Z,27.80
2023-06-23T12:54:40.128Z,28.20
2023-06-23T12:57:09.523Z,28.50
2023-06-23T12:59:36.264Z,28.70
2023-06-23T13:02:03.238Z,29.10
2023-06-23T13:04:30.170Z,28.90
2023-06-23T13:06:57.115Z,28.70
2023-06-23T13:09:24.855Z,28.60
2023-06-23T13:11:51.788Z,29.10
2023-06-23T13:14:18.490Z,29.10
2023-06-23T13:16:45.249Z,29.80
2023-06-23T13:19:12.972Z,29.90
2023-06-23T13:21:44.470Z,30.20
2023-06-23T13:24:11.234Z,31.10
2023-06-23T13:26:37.955Z,31.10
2023-06-23T13:29:04.813Z,31.10
2023-06-23T13:31:31.652Z,30.90
2023-06-23T13:33:58.921Z,30.30
2023-06-23T13:36:25.687Z,30.40
2023-06-23T13:38:52.412Z,30.90
2023-06-23T13:41:19.082Z,31.20
2023-06-23T13:43:45.835Z,32.20
2023-06-23T13:46:14.792Z,31.60
2023-06-23T13:48:41.856Z,31.80
2023-06-23T13:51:08.599Z,32.10
2023-06-23T13:53:39.394Z,32.20
2023-06-23T13:56:06.483Z,32.50
2023-06-23T13:58:33.394Z,32.60
2023-06-23T14:01:00.236Z,31.90
2023-06-23T14:03:27.126Z,32.20
2023-06-23T14:05:55.126Z,32.70
2023-06-23T14:08:22.560Z,32.20
2023-06-23T14:10:49.467Z,31.90
2023-06-23T14:13:16.217Z,31.90
2023-06-23T14:15:43.207Z,30.80
2023-06-23T14:18:10.116Z,30.50
2023-06-23T14:20:37.018Z,30.90
2023-06-23T14:23:04.148Z,31.50
2023-06-23T14:25:32.220Z,31.50
2023-06-23T14:28:00.807Z,30.80
2023-06-23T14:30:28.202Z,30.40
2023-06-23T14:32:56.947Z,29.80
2023-06-23T14:35:24.234Z,29.50
2023-06-23T14:37:51.110Z,29.50
2023-06-23T14:40:17.976Z,29.20
2023-06-23T14:42:44.903Z,29.20
2023-06-23T14:45:12.015Z,29.10
2023-06-23T14:47:41.347Z,28.90
2023-06-23T14:50:09.988Z,28.20
2023-06-23T14:52:37.425Z,28.20
2023-06-23T14:55:04.662Z,28.20
2023-06-23T14:57:31.677Z,28.10
2023-06-23T14:59:58.397Z,28.10
2023-06-23T15:02:25.831Z,28.10
2023-06-23T15:04:52.671Z,28.20
2023-06-23T15:07:19.542Z,28.10
2023-06-23T15:09:46.354Z,27.90
2023-06-23T15:12:13.211Z,27.80
2023-06-23T15:14:41.031Z,27.70
2023-06-23T15:17:07.848Z,27.50
2023-06-23T15:19:34.651Z,27.60
2023-06-23T15:22:03.049Z,27.40
2023-06-23T15:24:30.590Z,27.40
2023-06-23T15:26:57.618Z,27.30
2023-06-23T15:29:24.488Z,27.20
2023-06-23T15:31:51.498Z,27.10
2023-06-23T15:34:18.407Z,26.90
2023-06-23T15:36:45.194Z,27.00
2023-06-23T15:39:11.904Z,27.20
2023-06-23T15:41:38.892Z,27.10
2023-06-23T15:44:05.552Z,27.20
2023-06-23T15:46:34.294Z,27.20
2023-06-23T15:49:01.917Z,27.20
2023-06-23T15:51:28.698Z,27.30
2023-06-23T15:53:55.602Z,27.40
2023-06-23T15:56:22.472Z,27.50
2023-06-23T15:58:49.253Z,27.60
2023-06-23T16:01:16.201Z,27.50
2023-06-23T16:03:43.418Z,27.50
2023-06-23T16:06:10.946Z,27.70
2023-06-23T16:08:37.707Z,27.50
2023-06-23T16:11:05.109Z,27.60
2023-06-23T16:13:31.996Z,27.60
2023-06-23T16:15:58.857Z,27.60
2023-06-23T16:18:25.717Z,27.60
2023-06-23T16:20:52.483Z,27.70
2023-06-23T16:23:19.311Z,27.70
2023-06-23T16:25:46.101Z,27.50
2023-06-23T16:28:12.809Z,27.50
2023-06-23T16:30:39.631Z,27.60
2023-06-23T16:33:06.523Z,27.60
2023-06-23T16:35:34.901Z,27.40
2023-06-23T16:38:01.947Z,27.40
2023-06-23T16:40:29.125Z,27.40
2023-06-23T16:42:56.029Z,27.50
2023-06-23T16:45:22.842Z,27.50
2023-06-23T16:47:49.888Z,27.60
2023-06-23T16:50:16.823Z,27.50
2023-06-23T16:52:44.116Z,27.40
2023-06-23T16:55:11.284Z,27.30
2023-06-23T16:57:38.150Z,27.20
2023-06-23T17:00:06.766Z,27.20
2023-06-23T17:02:33.765Z,27.30
2023-06-23T17:05:00.964Z,27.40
2023-06-23T17:07:27.971Z,27.50
2023-06-23T17:09:54.869Z,27.50
2023-06-23T17:12:22.239Z,27.50
2023-06-23T17:14:49.979Z,27.50
2023-06-23T17:17:17.644Z,27.40
2023-06-23T17:19:44.525Z,27.30
2023-06-23T17:22:11.258Z,27.20
2023-06-23T17:24:38.019Z,27.10
2023-06-23T17:27:05.218Z,27.10
2023-06-23T17:29:34.079Z,27.10
2023-06-23T17:32:01.046Z,27.00
2023-06-23T17:34:27.846Z,27.10
2023-06-23T17:36:55.079Z,27.10
2023-06-23T17:39:21.777Z,27.10
2023-06-23T17:41:49.809Z,27.10
2023-06-23T17:44:16.490Z,27.00
2023-06-23T17:46:43.219Z,26.90
2023-06-23T17:49:10.518Z,26.80
2023-06-23T17:51:37.299Z,26.70
2023-06-23T17:54:04.246Z,26.60
2023-06-23T17:56:31.549Z,26.70
2023-06-23T17:58:58.321Z,26.90
2023-06-23T18:01:25.598Z,26.80
2023-06-23T18:03:52.590Z,26.90
2023-06-23T18:06:19.411Z,26.80
2023-06-23T18:08:46.118Z,26.70
2023-06-23T18:11:12.930Z,26.60
2023-06-23T18:13:42.214Z,26.60
2023-06-23T18:16:09.452Z,26.50
2023-06-23T18:18:36.231Z,26.30
2023-06-23T18:21:03.142Z,26.30
2023-06-23T18:23:29.961Z,26.20
2023-06-23T18:25:56.650Z,26.30
2023-06-23T18:28:23.514Z,26.30
2023-06-23T18:30:50.334Z,26.30
2023-06-23T18:33:17.124Z,26.20
2023-06-23T18:35:43.844Z,26.10
2023-06-23T18:38:10.535Z,26.00
2023-06-23T18:40:37.406Z,25.80
2023-06-23T18:43:04.122Z,25.70
2023-06-23T18:45:32.433Z,25.60
2023-06-23T18:47:59.301Z,25.50
2023-06-23T18:50:26.140Z,25.40
2023-06-23T18:52:52.947Z,25.40
2023-06-23T18:55:20.195Z,25.40
2023-06-23T18:57:47.275Z,25.30
2023-06-23T19:00:14.470Z,25.30
2023-06-23T19:02:41.392Z,25.20
2023-06-23T19:05:08.767Z,25.20
2023-06-23T19:07:35.481Z,25.10
2023-06-23T19:10:02.521Z,25.00
2023-06-23T19:12:29.294Z,25.00
2023-06-23T19:14:56.214Z,25.00
2023-06-23T19:17:23.067Z,24.90
2023-06-23T19:19:49.879Z,24.80
2023-06-23T19:22:16.700Z,24.80
2023-06-23T19:24:44.174Z,24.70
2023-06-23T19:27:10.937Z,24.70
2023-06-23T19:29:37.682Z,24.60
2023-06-23T19:32:04.987Z,24.60
2023-06-23T19:34:33.327Z,24.50
2023-06-23T19:37:00.845Z,24.40
2023-06-23T19:39:28.045Z,24.40
2023-06-23T19:41:55.402Z,24.40
2023-06-23T19:44:22.430Z,24.30
2023-06-23T19:46:49.249Z,24.20
2023-06-23T19:49:17.166Z,24.10
2023-06-23T19:51:44.042Z,24.10
2023-06-23T19:54:10.799Z,24.10
2023-06-23T19:56:37.514Z,24.00
2023-06-23T19:59:04.234Z,24.00
2023-06-23T20:01:31.266Z,24.00
2023-06-23T20:03:58.104Z,23.90
2023-06-23T20:06:24.832Z,23.80
2023-06-23T20:08:51.629Z,23.80
2023-06-23T20:11:18.372Z,23.80
2023-06-23T20:13:45.237Z,23.80
2023-06-23T20:16:12.493Z,23.70
2023-06-23T20:18:39.851Z,23.70
2023-06-23T20:21:06.685Z,23.60
2023-06-23T20:23:33.967Z,23.60
2023-06-23T20:26:02.305Z,23.50
2023-06-23T20:28:29.209Z,23.50
2023-06-23T20:30:55.916Z,23.40
2023-06-23T20:33:22.769Z,23.40
2023-06-23T20:35:50.126Z,23.40
2023-06-23T20:38:17.173Z,23.40
2023-06-23T20:40:45.328Z,23.40
2023-06-23T20:43:12.353Z,23.40
2023-06-23T20:45:40.047Z,23.40
2023-06-23T20:48:08.015Z,23.30
2023-06-23T20:50:35.496Z,23.30
2023-06-23T20:53:02.623Z,23.30
2023-06-23T20:55:29.497Z,23.20
2023-06-23T20:57:56.508Z,23.10
2023-06-23T21:00:23.367Z,23.10
2023-06-23T21:02:50.515Z,23.00
2023-06-23T21:05:17.507Z,23.00
2023-06-23T21:07:47.478Z,23.00
2023-06-23T21:10:27.392Z,23.00
2023-06-23T21:12:55.708Z,22.90
2023-06-23T21:15:30.502Z,22.90
2023-06-23T21:17:57.457Z,22.80
2023-06-23T21:20:26.393Z,22.80
2023-06-23T21:22:53.756Z,22.80
2023-06-23T21:25:20.754Z,22.80
2023-06-23T21:27:50.659Z,22.70
2023-06-23T21:30:18.280Z,22.70
2023-06-23T21:32:45.573Z,22.70
2023-06-23T21:35:13.331Z,22.60
2023-06-23T21:37:43.148Z,22.60
2023-06-23T21:40:14.489Z,22.50
2023-06-23T21:42:41.179Z,22.50
2023-06-23T21:45:08.217Z,22.40
2023-06-23T21:47:35.090Z,22.40
2023-06-23T21:50:02.433Z,22.30
2023-06-23T21:52:29.364Z,22.30
2023-06-23T21:54:56.079Z,22.30
2023-06-23T21:57:22.834Z,22.20
2023-06-23T21:59:49.602Z,22.20
2023-06-23T22:02:16.404Z,22.10
2023-06-23T22:04:43.877Z,22.10
2023-06-23T22:07:10.634Z,22.10
2023-06-23T22:09:37.560Z,22.10
2023-06-23T22:12:04.746Z,22.10
2023-06-23T22:14:31.518Z,22.00
2023-06-23T22:16:58.355Z,22.00
2023-06-23T22:19:25.226Z,21.90
2023-06-23T22:21:52.615Z,22.00
2023-06-23T22:24:19.634Z,22.00
2023-06-23T22:26:46.451Z,22.00
2023-06-23T22:29:13.222Z,22.00
2023-06-23T22:31:40.835Z,21.90
2023-06-23T22:34:07.710Z,21.90
2023-06-23T22:36:36.981Z,21.90
2023-06-23T22:39:04.944Z,21.80
2023-06-23T22:41:32.311Z,21.80
2023-06-23T22:43:59.186Z,21.80
2023-06-23T22:46:26.066Z,21.80
2023-06-23T22:48:56.921Z,21.80
2023-06-23T22:51:24.222Z,21.70
2023-06-23T22:53:51.064Z,21.70
2023-06-23T22:56:19.839Z,21.60
2023-06-23T22:58:46.583Z,21.60
2023-06-23T23:01:13.501Z,21.50
2023-06-23T23:03:40.371Z,21.40
2023-06-23T23:06:07.129Z,21.40
2023-06-23T23:08:33.860Z,21.30
2023-06-23T23:11:00.671Z,21.30
2023-06-23T23:13:27.641Z,21.30
2023-06-23T23:15:54.382Z,21.30
2023-06-23T23:18:21.077Z,21.30
2023-06-23T23:20:47.848Z,21.30
2023-06-23T23:23:14.569Z,21.30
2023-06-23T23:25:41.520Z,21.30
2023-06-23T23:28:11.461Z,21.30
2023-06-23T23:30:38.628Z,21.30
2023-06-23T23:33:05.803Z,21.20
2023-06-23T23:35:33.975Z,21.20
2023-06-23T23:38:00.792Z,21.20
2023-06-23T23:40:27.571Z,21.20
2023-06-23T23:42:54.289Z,21.20
2023-06-23T23:45:21.147Z,21.20
2023-06-23T23:47:47.891Z,21.20
2023-06-23T23:50:15.214Z,21.20
2023-06-23T23:52:42.020Z,21.30
2023-06-23T23:55:09.448Z,21.30
2023-06-23T23:57:36.336Z,21.30
